sensor_id;sensor_type;location;lat;lon;timestamp;temperature;humidity
37528;DHT22;23372;52.050;4.810;2023-05-07T00:00:25;14.40;99.90
37528;DHT22;23372;52.050;4.810;2023-05-07T00:02:51;14.40;99.90
37528;DHT22;23372;52.050;4.810;2023-05-07T00:05:16;14.40;99.90
37528;DHT22;23372;52.050;4.810;2023-05-07T00:07:42;14.40;99.90
37528;DHT22;23372;52.050;4.810;2023-05-07T00:10:09;14.40;99.90
37528;DHT22;23372;52.050;4.810;2023-05-07T00:12:35;14.50;99.90
37528;DHT22;23372;52.050;4.810;2023-05-07T00:15:05;14.50;99.90
37528;DHT22;23372;52.050;4.810;2023-05-07T00:17:32;14.50;99.90
37528;DHT22;23372;52.050;4.810;2023-05-07T00:19:58;14.50;99.90
37528;DHT22;23372;52.050;4.810;2023-05-07T00:22:23;14.40;99.90
37528;DHT22;23372;52.050;4.810;2023-05-07T00:24:49;14.40;99.90
37528;DHT22;23372;52.050;4.810;2023-05-07T00:27:15;14.50;99.90
37528;DHT22;23372;52.050;4.810;2023-05-07T00:29:40;14.50;99.90
37528;DHT22;23372;52.050;4.810;2023-05-07T00:32:06;14.50;99.90
37528;DHT22;23372;52.050;4.810;2023-05-07T00:34:31;14.50;99.90
37528;DHT22;23372;52.050;4.810;2023-05-07T00:36:57;14.50;99.90
37528;DHT22;23372;52.050;4.810;2023-05-07T00:39:22;14.60;99.90
37528;DHT22;23372;52.050;4.810;2023-05-07T00:41:48;14.60;99.90
37528;DHT22;23372;52.050;4.810;2023-05-07T00:44:14;14.60;99.90
37528;DHT22;23372;52.050;4.810;2023-05-07T00:46:40;14.60;99.90
37528;DHT22;23372;52.050;4.810;2023-05-07T00:49:05;14.60;99.90
37528;DHT22;23372;52.050;4.810;2023-05-07T00:51:32;14.70;99.90
37528;DHT22;23372;52.050;4.810;2023-05-07T00:53:59;14.60;99.90
37528;DHT22;23372;52.050;4.810;2023-05-07T00:56:26;14.60;99.90
37528;DHT22;23372;52.050;4.810;2023-05-07T00:58:52;14.40;99.90
37528;DHT22;23372;52.050;4.810;2023-05-07T01:01:17;14.40;99.90
37528;DHT22;23372;52.050;4.810;2023-05-07T01:03:43;14.40;99.90
37528;DHT22;23372;52.050;4.810;2023-05-07T01:06:10;14.40;99.90
37528;DHT22;23372;52.050;4.810;2023-05-07T01:08:41;14.50;99.90
37528;DHT22;23372;52.050;4.810;2023-05-07T01:11:07;14.40;99.90
37528;DHT22;23372;52.050;4.810;2023-05-07T01:13:34;14.40;99.90
37528;DHT22;23372;52.050;4.810;2023-05-07T01:16:00;14.40;99.90
37528;DHT22;23372;52.050;4.810;2023-05-07T01:18:26;14.50;99.90
37528;DHT22;23372;52.050;4.810;2023-05-07T01:20:52;14.40;99.90
37528;DHT22;23372;52.050;4.810;2023-05-07T01:23:18;14.50;99.90
37528;DHT22;23372;52.050;4.810;2023-05-07T01:25:53;14.40;99.90
37528;DHT22;23372;52.050;4.810;2023-05-07T01:28:19;14.40;99.90
37528;DHT22;23372;52.050;4.810;2023-05-07T01:30:51;14.50;99.90
37528;DHT22;23372;52.050;4.810;2023-05-07T01:33:20;14.50;99.90
37528;DHT22;23372;52.050;4.810;2023-05-07T01:35:49;14.60;99.90
37528;DHT22;23372;52.050;4.810;2023-05-07T01:38:16;14.50;99.90
37528;DHT22;23372;52.050;4.810;2023-05-07T01:40:42;14.70;99.90
37528;DHT22;23372;52.050;4.810;2023-05-07T01:43:08;14.60;99.90
37528;DHT22;23372;52.050;4.810;2023-05-07T01:45:35;14.60;99.90
37528;DHT22;23372;52.050;4.810;2023-05-07T01:48:02;14.70;99.90
37528;DHT22;23372;52.050;4.810;2023-05-07T01:50:28;14.70;99.90
37528;DHT22;23372;52.050;4.810;2023-05-07T01:52:55;14.70;99.90
37528;DHT22;23372;52.050;4.810;2023-05-07T01:55:21;14.70;99.90
37528;DHT22;23372;52.050;4.810;2023-05-07T01:57:47;14.70;99.90
37528;DHT22;23372;52.050;4.810;2023-05-07T02:00:12;14.60;99.90
37528;DHT22;23372;52.050;4.810;2023-05-07T02:02:38;14.70;99.90
37528;DHT22;23372;52.050;4.810;2023-05-07T02:05:04;14.60;99.90
37528;DHT22;23372;52.050;4.810;2023-05-07T02:07:30;14.60;99.90
37528;DHT22;23372;52.050;4.810;2023-05-07T02:09:55;14.50;99.90
37528;DHT22;23372;52.050;4.810;2023-05-07T02:12:22;14.50;99.90
37528;DHT22;23372;52.050;4.810;2023-05-07T02:14:47;14.50;99.90
37528;DHT22;23372;52.050;4.810;2023-05-07T02:17:13;14.50;99.90
37528;DHT22;23372;52.050;4.810;2023-05-07T02:19:39;14.30;99.90
37528;DHT22;23372;52.050;4.810;2023-05-07T02:22:04;14.40;99.90
37528;DHT22;23372;52.050;4.810;2023-05-07T02:24:30;14.30;99.90
37528;DHT22;23372;52.050;4.810;2023-05-07T02:26:55;14.30;99.90
37528;DHT22;23372;52.050;4.810;2023-05-07T02:29:21;14.30;99.90
37528;DHT22;23372;52.050;4.810;2023-05-07T02:31:47;14.30;99.90
37528;DHT22;23372;52.050;4.810;2023-05-07T02:34:16;14.20;99.90
37528;DHT22;23372;52.050;4.810;2023-05-07T02:36:42;14.30;99.90
37528;DHT22;23372;52.050;4.810;2023-05-07T02:39:07;14.30;99.90
37528;DHT22;23372;52.050;4.810;2023-05-07T02:41:33;14.30;99.90
37528;DHT22;23372;52.050;4.810;2023-05-07T02:43:59;14.30;99.90
37528;DHT22;23372;52.050;4.810;2023-05-07T02:46:24;14.30;99.90
37528;DHT22;23372;52.050;4.810;2023-05-07T02:48:50;14.40;99.90
37528;DHT22;23372;52.050;4.810;2023-05-07T02:51:20;14.40;99.90
37528;DHT22;23372;52.050;4.810;2023-05-07T02:53:46;14.30;99.90
37528;DHT22;23372;52.050;4.810;2023-05-07T02:56:11;14.30;99.90
37528;DHT22;23372;52.050;4.810;2023-05-07T02:58:37;14.30;99.90
37528;DHT22;23372;52.050;4.810;2023-05-07T03:01:05;14.30;99.90
37528;DHT22;23372;52.050;4.810;2023-05-07T03:03:30;14.40;99.90
37528;DHT22;23372;52.050;4.810;2023-05-07T03:05:56;14.30;99.90
37528;DHT22;23372;52.050;4.810;2023-05-07T03:08:22;14.30;99.90
37528;DHT22;23372;52.050;4.810;2023-05-07T03:10:48;14.20;99.90
37528;DHT22;23372;52.050;4.810;2023-05-07T03:13:13;14.40;99.90
37528;DHT22;23372;52.050;4.810;2023-05-07T03:15:39;14.40;99.90
37528;DHT22;23372;52.050;4.810;2023-05-07T03:18:05;14.30;99.90
37528;DHT22;23372;52.050;4.810;2023-05-07T03:20:31;14.30;99.90
37528;DHT22;23372;52.050;4.810;2023-05-07T03:22:57;14.40;99.90
37528;DHT22;23372;52.050;4.810;2023-05-07T03:25:22;14.30;99.90
37528;DHT22;23372;52.050;4.810;2023-05-07T03:27:48;14.40;99.90
37528;DHT22;23372;52.050;4.810;2023-05-07T03:30:14;14.40;99.90
37528;DHT22;23372;52.050;4.810;2023-05-07T03:32:39;14.40;99.90
37528;DHT22;23372;52.050;4.810;2023-05-07T03:35:05;14.40;99.90
37528;DHT22;23372;52.050;4.810;2023-05-07T03:37:31;14.40;99.90
37528;DHT22;23372;52.050;4.810;2023-05-07T03:39:57;14.40;99.90
37528;DHT22;23372;52.050;4.810;2023-05-07T03:42:22;14.40;99.90
37528;DHT22;23372;52.050;4.810;2023-05-07T03:44:48;14.30;99.90
37528;DHT22;23372;52.050;4.810;2023-05-07T03:47:14;14.30;99.90
37528;DHT22;23372;52.050;4.810;2023-05-07T03:49:39;14.40;99.90
37528;DHT22;23372;52.050;4.810;2023-05-07T03:52:05;14.40;99.90
37528;DHT22;23372;52.050;4.810;2023-05-07T03:54:31;14.40;99.90
37528;DHT22;23372;52.050;4.810;2023-05-07T03:56:57;14.40;99.90
37528;DHT22;23372;52.050;4.810;2023-05-07T03:59:22;14.40;99.90
37528;DHT22;23372;52.050;4.810;2023-05-07T04:01:48;14.40;99.90
37528;DHT22;23372;52.050;4.810;2023-05-07T04:04:14;14.40;99.90
37528;DHT22;23372;52.050;4.810;2023-05-07T04:06:40;14.30;99.90
37528;DHT22;23372;52.050;4.810;2023-05-07T04:09:06;14.30;99.90
37528;DHT22;23372;52.050;4.810;2023-05-07T04:11:32;14.40;99.90
37528;DHT22;23372;52.050;4.810;2023-05-07T04:13:57;14.40;99.90
37528;DHT22;23372;52.050;4.810;2023-05-07T04:16:23;14.40;99.90
37528;DHT22;23372;52.050;4.810;2023-05-07T04:18:49;14.50;99.90
37528;DHT22;23372;52.050;4.810;2023-05-07T04:21:19;14.50;99.90
37528;DHT22;23372;52.050;4.810;2023-05-07T04:23:48;14.50;99.90
37528;DHT22;23372;52.050;4.810;2023-05-07T04:26:14;14.50;99.90
37528;DHT22;23372;52.050;4.810;2023-05-07T04:28:40;14.50;99.90
37528;DHT22;23372;52.050;4.810;2023-05-07T04:31:06;14.50;99.90
37528;DHT22;23372;52.050;4.810;2023-05-07T04:33:32;14.50;99.90
37528;DHT22;23372;52.050;4.810;2023-05-07T04:35:58;14.50;99.90
37528;DHT22;23372;52.050;4.810;2023-05-07T04:38:29;14.50;99.90
37528;DHT22;23372;52.050;4.810;2023-05-07T04:40:56;14.50;99.90
37528;DHT22;23372;52.050;4.810;2023-05-07T04:43:22;14.50;99.90
37528;DHT22;23372;52.050;4.810;2023-05-07T04:45:50;14.50;99.90
37528;DHT22;23372;52.050;4.810;2023-05-07T04:48:15;14.50;99.90
37528;DHT22;23372;52.050;4.810;2023-05-07T04:50:41;14.60;99.90
37528;DHT22;23372;52.050;4.810;2023-05-07T04:53:07;14.60;99.90
37528;DHT22;23372;52.050;4.810;2023-05-07T04:55:32;14.50;99.90
37528;DHT22;23372;52.050;4.810;2023-05-07T04:57:58;14.50;99.90
37528;DHT22;23372;52.050;4.810;2023-05-07T05:00:23;14.50;99.90
37528;DHT22;23372;52.050;4.810;2023-05-07T05:02:50;14.60;99.90
37528;DHT22;23372;52.050;4.810;2023-05-07T05:05:16;14.60;99.90
37528;DHT22;23372;52.050;4.810;2023-05-07T05:07:41;14.60;99.90
37528;DHT22;23372;52.050;4.810;2023-05-07T05:10:07;14.60;99.90
37528;DHT22;23372;52.050;4.810;2023-05-07T05:12:32;14.70;99.90
37528;DHT22;23372;52.050;4.810;2023-05-07T05:14:58;14.70;99.90
37528;DHT22;23372;52.050;4.810;2023-05-07T05:17:24;14.70;99.90
37528;DHT22;23372;52.050;4.810;2023-05-07T05:19:49;14.70;99.90
37528;DHT22;23372;52.050;4.810;2023-05-07T05:22:15;14.70;99.90
37528;DHT22;23372;52.050;4.810;2023-05-07T05:24:40;14.80;99.90
37528;DHT22;23372;52.050;4.810;2023-05-07T05:27:06;14.90;99.90
37528;DHT22;23372;52.050;4.810;2023-05-07T05:29:31;15.00;99.90
37528;DHT22;23372;52.050;4.810;2023-05-07T05:31:57;15.00;99.90
37528;DHT22;23372;52.050;4.810;2023-05-07T05:34:23;15.10;99.90
37528;DHT22;23372;52.050;4.810;2023-05-07T05:36:48;15.20;99.90
37528;DHT22;23372;52.050;4.810;2023-05-07T05:39:14;15.20;99.90
37528;DHT22;23372;52.050;4.810;2023-05-07T05:41:39;15.30;99.90
37528;DHT22;23372;52.050;4.810;2023-05-07T05:44:05;15.30;99.90
37528;DHT22;23372;52.050;4.810;2023-05-07T05:46:31;15.50;99.90
37528;DHT22;23372;52.050;4.810;2023-05-07T05:48:56;15.60;99.90
37528;DHT22;23372;52.050;4.810;2023-05-07T05:51:22;15.70;99.90
37528;DHT22;23372;52.050;4.810;2023-05-07T05:53:48;15.60;99.90
37528;DHT22;23372;52.050;4.810;2023-05-07T05:56:14;15.80;99.90
37528;DHT22;23372;52.050;4.810;2023-05-07T05:58:40;15.60;99.90
37528;DHT22;23372;52.050;4.810;2023-05-07T06:01:06;15.70;99.90
37528;DHT22;23372;52.050;4.810;2023-05-07T06:03:32;15.70;99.90
37528;DHT22;23372;52.050;4.810;2023-05-07T06:05:57;15.70;99.90
37528;DHT22;23372;52.050;4.810;2023-05-07T06:08:23;15.70;99.90
37528;DHT22;23372;52.050;4.810;2023-05-07T06:10:49;15.80;99.90
37528;DHT22;23372;52.050;4.810;2023-05-07T06:13:14;15.80;99.90
37528;DHT22;23372;52.050;4.810;2023-05-07T06:15:40;15.70;99.90
37528;DHT22;23372;52.050;4.810;2023-05-07T06:18:05;15.80;99.90
37528;DHT22;23372;52.050;4.810;2023-05-07T06:20:31;15.70;99.90
37528;DHT22;23372;52.050;4.810;2023-05-07T06:22:57;15.80;99.90
37528;DHT22;23372;52.050;4.810;2023-05-07T06:25:22;15.70;99.90
37528;DHT22;23372;52.050;4.810;2023-05-07T06:27:48;15.80;99.90
37528;DHT22;23372;52.050;4.810;2023-05-07T06:30:13;15.80;99.90
37528;DHT22;23372;52.050;4.810;2023-05-07T06:32:40;15.80;99.90
37528;DHT22;23372;52.050;4.810;2023-05-07T06:35:06;15.90;99.90
37528;DHT22;23372;52.050;4.810;2023-05-07T06:37:31;15.90;99.90
37528;DHT22;23372;52.050;4.810;2023-05-07T06:39:57;15.90;99.90
37528;DHT22;23372;52.050;4.810;2023-05-07T06:42:23;15.90;99.90
37528;DHT22;23372;52.050;4.810;2023-05-07T06:44:48;16.00;99.90
37528;DHT22;23372;52.050;4.810;2023-05-07T06:47:14;16.00;99.90
37528;DHT22;23372;52.050;4.810;2023-05-07T06:49:39;16.00;99.90
37528;DHT22;23372;52.050;4.810;2023-05-07T06:52:05;16.00;99.90
37528;DHT22;23372;52.050;4.810;2023-05-07T06:54:30;16.00;99.90
37528;DHT22;23372;52.050;4.810;2023-05-07T06:56:56;16.00;99.90
37528;DHT22;23372;52.050;4.810;2023-05-07T06:59:22;15.90;99.90
37528;DHT22;23372;52.050;4.810;2023-05-07T07:01:47;15.80;99.90
37528;DHT22;23372;52.050;4.810;2023-05-07T07:04:13;15.80;99.90
37528;DHT22;23372;52.050;4.810;2023-05-07T07:06:38;15.80;99.90
37528;DHT22;23372;52.050;4.810;2023-05-07T07:09:04;15.70;99.90
37528;DHT22;23372;52.050;4.810;2023-05-07T07:11:29;15.80;99.90
37528;DHT22;23372;52.050;4.810;2023-05-07T07:13:55;16.00;99.90
37528;DHT22;23372;52.050;4.810;2023-05-07T07:16:21;16.00;99.90
37528;DHT22;23372;52.050;4.810;2023-05-07T07:18:47;16.00;99.90
37528;DHT22;23372;52.050;4.810;2023-05-07T07:21:13;16.10;99.90
37528;DHT22;23372;52.050;4.810;2023-05-07T07:23:38;16.10;99.90
37528;DHT22;23372;52.050;4.810;2023-05-07T07:26:04;16.10;99.90
37528;DHT22;23372;52.050;4.810;2023-05-07T07:28:31;16.10;99.90
37528;DHT22;23372;52.050;4.810;2023-05-07T07:30:56;16.00;99.90
37528;DHT22;23372;52.050;4.810;2023-05-07T07:33:23;16.10;99.90
37528;DHT22;23372;52.050;4.810;2023-05-07T07:35:49;16.20;99.90
37528;DHT22;23372;52.050;4.810;2023-05-07T07:38:14;16.20;99.90
37528;DHT22;23372;52.050;4.810;2023-05-07T07:40:40;16.30;99.90
37528;DHT22;23372;52.050;4.810;2023-05-07T07:43:06;16.30;99.90
37528;DHT22;23372;52.050;4.810;2023-05-07T07:45:31;16.30;99.90
37528;DHT22;23372;52.050;4.810;2023-05-07T07:47:57;16.20;99.90
37528;DHT22;23372;52.050;4.810;2023-05-07T07:50:22;16.00;99.90
37528;DHT22;23372;52.050;4.810;2023-05-07T07:52:48;16.10;99.90
37528;DHT22;23372;52.050;4.810;2023-05-07T07:55:14;16.30;99.90
37528;DHT22;23372;52.050;4.810;2023-05-07T07:57:43;16.50;99.90
37528;DHT22;23372;52.050;4.810;2023-05-07T08:00:09;16.60;99.90
37528;DHT22;23372;52.050;4.810;2023-05-07T08:02:35;17.00;99.90
37528;DHT22;23372;52.050;4.810;2023-05-07T08:05:00;17.40;99.90
37528;DHT22;23372;52.050;4.810;2023-05-07T08:07:26;19.40;99.90
37528;DHT22;23372;52.050;4.810;2023-05-07T08:09:51;21.00;99.90
37528;DHT22;23372;52.050;4.810;2023-05-07T08:12:17;21.10;99.90
37528;DHT22;23372;52.050;4.810;2023-05-07T08:14:43;20.80;99.90
37528;DHT22;23372;52.050;4.810;2023-05-07T08:17:09;21.60;99.90
37528;DHT22;23372;52.050;4.810;2023-05-07T08:19:35;22.30;99.90
37528;DHT22;23372;52.050;4.810;2023-05-07T08:22:02;22.20;99.90
37528;DHT22;23372;52.050;4.810;2023-05-07T08:24:27;22.70;99.90
37528;DHT22;23372;52.050;4.810;2023-05-07T08:26:53;24.10;99.90
37528;DHT22;23372;52.050;4.810;2023-05-07T08:29:18;24.70;99.90
37528;DHT22;23372;52.050;4.810;2023-05-07T08:31:44;26.10;99.90
37528;DHT22;23372;52.050;4.810;2023-05-07T08:34:09;26.50;99.90
37528;DHT22;23372;52.050;4.810;2023-05-07T08:36:35;26.30;99.90
37528;DHT22;23372;52.050;4.810;2023-05-07T08:39:00;26.00;99.90
37528;DHT22;23372;52.050;4.810;2023-05-07T08:41:26;25.70;99.90
37528;DHT22;23372;52.050;4.810;2023-05-07T08:43:52;25.10;99.90
37528;DHT22;23372;52.050;4.810;2023-05-07T08:46:20;24.20;99.90
37528;DHT22;23372;52.050;4.810;2023-05-07T08:48:50;23.30;99.90
37528;DHT22;23372;52.050;4.810;2023-05-07T08:51:18;23.20;99.90
37528;DHT22;23372;52.050;4.810;2023-05-07T08:53:46;23.20;99.90
37528;DHT22;23372;52.050;4.810;2023-05-07T08:56:14;22.20;99.90
37528;DHT22;23372;52.050;4.810;2023-05-07T08:58:41;22.00;99.90
37528;DHT22;23372;52.050;4.810;2023-05-07T09:01:17;22.10;99.90
37528;DHT22;23372;52.050;4.810;2023-05-07T09:03:46;21.90;99.90
37528;DHT22;23372;52.050;4.810;2023-05-07T09:06:12;21.90;99.90
37528;DHT22;23372;52.050;4.810;2023-05-07T09:08:37;21.80;99.90
37528;DHT22;23372;52.050;4.810;2023-05-07T09:11:03;21.80;99.90
37528;DHT22;23372;52.050;4.810;2023-05-07T09:13:29;21.80;99.90
37528;DHT22;23372;52.050;4.810;2023-05-07T09:15:55;21.60;99.90
37528;DHT22;23372;52.050;4.810;2023-05-07T09:18:21;22.00;99.90
37528;DHT22;23372;52.050;4.810;2023-05-07T09:20:46;22.50;99.90
37528;DHT22;23372;52.050;4.810;2023-05-07T09:23:12;22.60;99.90
37528;DHT22;23372;52.050;4.810;2023-05-07T09:25:38;22.30;99.90
37528;DHT22;23372;52.050;4.810;2023-05-07T09:28:04;22.60;99.90
37528;DHT22;23372;52.050;4.810;2023-05-07T09:30:33;23.00;99.90
37528;DHT22;23372;52.050;4.810;2023-05-07T09:33:00;22.30;99.90
37528;DHT22;23372;52.050;4.810;2023-05-07T09:35:26;22.00;99.90
37528;DHT22;23372;52.050;4.810;2023-05-07T09:37:59;22.40;99.90
37528;DHT22;23372;52.050;4.810;2023-05-07T09:40:27;22.30;99.90
37528;DHT22;23372;52.050;4.810;2023-05-07T09:42:53;22.30;99.90
37528;DHT22;23372;52.050;4.810;2023-05-07T09:45:28;22.30;99.90
37528;DHT22;23372;52.050;4.810;2023-05-07T09:47:56;22.20;99.90
37528;DHT22;23372;52.050;4.810;2023-05-07T09:50:28;21.90;99.90
37528;DHT22;23372;52.050;4.810;2023-05-07T09:52:55;21.60;99.90
37528;DHT22;23372;52.050;4.810;2023-05-07T09:55:21;21.40;99.90
37528;DHT22;23372;52.050;4.810;2023-05-07T09:57:50;21.80;99.90
37528;DHT22;23372;52.050;4.810;2023-05-07T10:00:18;22.50;99.90
37528;DHT22;23372;52.050;4.810;2023-05-07T10:02:46;22.80;99.90
37528;DHT22;23372;52.050;4.810;2023-05-07T10:05:14;23.00;99.90
37528;DHT22;23372;52.050;4.810;2023-05-07T10:07:40;23.10;99.90
37528;DHT22;23372;52.050;4.810;2023-05-07T10:10:07;22.60;99.90
37528;DHT22;23372;52.050;4.810;2023-05-07T10:12:33;22.50;99.90
37528;DHT22;23372;52.050;4.810;2023-05-07T10:15:08;22.70;99.90
37528;DHT22;23372;52.050;4.810;2023-05-07T10:17:36;22.50;99.90
37528;DHT22;23372;52.050;4.810;2023-05-07T10:20:02;22.90;99.90
37528;DHT22;23372;52.050;4.810;2023-05-07T10:22:36;22.60;99.90
37528;DHT22;23372;52.050;4.810;2023-05-07T10:25:06;22.70;99.90
37528;DHT22;23372;52.050;4.810;2023-05-07T10:27:34;22.40;99.90
37528;DHT22;23372;52.050;4.810;2023-05-07T10:35:11;23.00;99.90
37528;DHT22;23372;52.050;4.810;2023-05-07T10:37:40;23.30;99.90
37528;DHT22;23372;52.050;4.810;2023-05-07T10:40:06;22.90;99.90
37528;DHT22;23372;52.050;4.810;2023-05-07T10:42:32;23.00;99.90
37528;DHT22;23372;52.050;4.810;2023-05-07T10:44:58;22.60;99.90
37528;DHT22;23372;52.050;4.810;2023-05-07T10:47:36;22.50;99.90
37528;DHT22;23372;52.050;4.810;2023-05-07T10:50:22;22.60;99.90
37528;DHT22;23372;52.050;4.810;2023-05-07T10:55:42;23.10;99.90
37528;DHT22;23372;52.050;4.810;2023-05-07T10:58:27;23.10;99.90
37528;DHT22;23372;52.050;4.810;2023-05-07T11:00:58;23.10;99.90
37528;DHT22;23372;52.050;4.810;2023-05-07T11:03:24;23.40;99.90
37528;DHT22;23372;52.050;4.810;2023-05-07T11:06:09;23.40;99.90
37528;DHT22;23372;52.050;4.810;2023-05-07T11:08:56;23.30;99.90
37528;DHT22;23372;52.050;4.810;2023-05-07T11:11:44;23.30;99.90
37528;DHT22;23372;52.050;4.810;2023-05-07T11:14:09;23.30;99.90
37528;DHT22;23372;52.050;4.810;2023-05-07T11:16:36;23.20;99.90
37528;DHT22;23372;52.050;4.810;2023-05-07T11:19:03;23.20;99.90
37528;DHT22;23372;52.050;4.810;2023-05-07T11:21:36;23.30;99.90
37528;DHT22;23372;52.050;4.810;2023-05-07T11:24:04;22.90;99.90
37528;DHT22;23372;52.050;4.810;2023-05-07T11:26:41;22.70;99.90
37528;DHT22;23372;52.050;4.810;2023-05-07T11:29:21;23.00;99.90
37528;DHT22;23372;52.050;4.810;2023-05-07T11:31:51;23.50;99.90
37528;DHT22;23372;52.050;4.810;2023-05-07T11:34:21;23.80;99.90
37528;DHT22;23372;52.050;4.810;2023-05-07T11:36:48;24.00;99.90
37528;DHT22;23372;52.050;4.810;2023-05-07T11:39:32;23.40;99.90
37528;DHT22;23372;52.050;4.810;2023-05-07T11:41:59;23.60;99.90
37528;DHT22;23372;52.050;4.810;2023-05-07T11:44:25;24.00;99.90
37528;DHT22;23372;52.050;4.810;2023-05-07T11:47:04;24.00;99.90
37528;DHT22;23372;52.050;4.810;2023-05-07T11:49:30;23.80;99.90
37528;DHT22;23372;52.050;4.810;2023-05-07T11:51:56;23.80;99.90
37528;DHT22;23372;52.050;4.810;2023-05-07T11:54:21;23.50;99.90
37528;DHT22;23372;52.050;4.810;2023-05-07T11:56:47;24.10;99.90
37528;DHT22;23372;52.050;4.810;2023-05-07T11:59:17;24.00;99.90
37528;DHT22;23372;52.050;4.810;2023-05-07T12:01:45;24.10;99.90
37528;DHT22;23372;52.050;4.810;2023-05-07T12:04:11;24.30;99.90
37528;DHT22;23372;52.050;4.810;2023-05-07T12:06:37;24.40;99.90
37528;DHT22;23372;52.050;4.810;2023-05-07T12:09:04;24.30;99.90
37528;DHT22;23372;52.050;4.810;2023-05-07T12:11:30;23.70;99.90
37528;DHT22;23372;52.050;4.810;2023-05-07T12:13:55;22.90;99.90
37528;DHT22;23372;52.050;4.810;2023-05-07T12:16:21;22.80;99.90
37528;DHT22;23372;52.050;4.810;2023-05-07T12:18:47;23.00;99.90
37528;DHT22;23372;52.050;4.810;2023-05-07T12:21:13;23.10;99.90
37528;DHT22;23372;52.050;4.810;2023-05-07T12:23:40;22.80;99.90
37528;DHT22;23372;52.050;4.810;2023-05-07T12:26:05;22.80;99.90
37528;DHT22;23372;52.050;4.810;2023-05-07T12:28:35;22.70;99.90
37528;DHT22;23372;52.050;4.810;2023-05-07T12:31:01;22.60;99.90
37528;DHT22;23372;52.050;4.810;2023-05-07T12:33:27;22.60;99.90
37528;DHT22;23372;52.050;4.810;2023-05-07T12:35:55;22.90;99.90
37528;DHT22;23372;52.050;4.810;2023-05-07T12:38:22;23.00;99.90
37528;DHT22;23372;52.050;4.810;2023-05-07T12:40:49;22.90;99.90
37528;DHT22;23372;52.050;4.810;2023-05-07T12:43:20;22.80;99.90
37528;DHT22;23372;52.050;4.810;2023-05-07T12:45:50;22.70;99.90
37528;DHT22;23372;52.050;4.810;2023-05-07T12:48:16;22.60;99.90
37528;DHT22;23372;52.050;4.810;2023-05-07T12:50:42;22.40;99.90
37528;DHT22;23372;52.050;4.810;2023-05-07T12:53:11;22.20;99.90
37528;DHT22;23372;52.050;4.810;2023-05-07T12:55:45;22.00;99.90
37528;DHT22;23372;52.050;4.810;2023-05-07T12:58:29;21.90;99.90
37528;DHT22;23372;52.050;4.810;2023-05-07T13:00:57;21.90;99.90
37528;DHT22;23372;52.050;4.810;2023-05-07T13:03:36;21.90;99.90
37528;DHT22;23372;52.050;4.810;2023-05-07T13:06:07;21.90;99.90
37528;DHT22;23372;52.050;4.810;2023-05-07T13:08:39;22.00;99.90
37528;DHT22;23372;52.050;4.810;2023-05-07T13:11:11;22.20;99.90
37528;DHT22;23372;52.050;4.810;2023-05-07T13:13:38;22.20;99.90
37528;DHT22;23372;52.050;4.810;2023-05-07T13:16:06;22.50;99.90
37528;DHT22;23372;52.050;4.810;2023-05-07T13:18:33;22.30;99.90
37528;DHT22;23372;52.050;4.810;2023-05-07T13:20:59;22.50;99.90
37528;DHT22;23372;52.050;4.810;2023-05-07T13:23:26;22.30;99.90
37528;DHT22;23372;52.050;4.810;2023-05-07T13:25:52;22.00;99.90
37528;DHT22;23372;52.050;4.810;2023-05-07T13:28:21;22.00;99.90
37528;DHT22;23372;52.050;4.810;2023-05-07T13:30:47;21.70;99.90
37528;DHT22;23372;52.050;4.810;2023-05-07T13:33:13;21.60;99.90
37528;DHT22;23372;52.050;4.810;2023-05-07T13:35:39;21.40;99.90
37528;DHT22;23372;52.050;4.810;2023-05-07T13:38:05;21.30;99.90
37528;DHT22;23372;52.050;4.810;2023-05-07T13:40:31;21.00;99.90
37528;DHT22;23372;52.050;4.810;2023-05-07T13:42:58;20.80;99.90
37528;DHT22;23372;52.050;4.810;2023-05-07T13:45:24;20.50;99.90
37528;DHT22;23372;52.050;4.810;2023-05-07T13:47:51;20.20;99.90
37528;DHT22;23372;52.050;4.810;2023-05-07T13:50:17;19.90;99.90
37528;DHT22;23372;52.050;4.810;2023-05-07T13:52:45;19.50;99.90
37528;DHT22;23372;52.050;4.810;2023-05-07T13:55:17;19.10;99.90
37528;DHT22;23372;52.050;4.810;2023-05-07T13:57:43;18.90;99.90
37528;DHT22;23372;52.050;4.810;2023-05-07T14:00:09;18.60;99.90
37528;DHT22;23372;52.050;4.810;2023-05-07T14:02:34;18.50;99.90
37528;DHT22;23372;52.050;4.810;2023-05-07T14:05:00;18.30;99.90
37528;DHT22;23372;52.050;4.810;2023-05-07T14:07:26;18.20;99.90
37528;DHT22;23372;52.050;4.810;2023-05-07T14:09:51;18.10;99.90
37528;DHT22;23372;52.050;4.810;2023-05-07T14:12:17;17.90;99.90
37528;DHT22;23372;52.050;4.810;2023-05-07T14:14:42;17.90;99.90
37528;DHT22;23372;52.050;4.810;2023-05-07T14:17:08;17.90;99.90
37528;DHT22;23372;52.050;4.810;2023-05-07T14:19:34;17.80;99.90
37528;DHT22;23372;52.050;4.810;2023-05-07T14:21:59;17.80;99.90
37528;DHT22;23372;52.050;4.810;2023-05-07T14:24:25;17.70;99.90
37528;DHT22;23372;52.050;4.810;2023-05-07T14:26:51;17.50;99.90
37528;DHT22;23372;52.050;4.810;2023-05-07T14:29:16;17.50;99.90
37528;DHT22;23372;52.050;4.810;2023-05-07T14:31:44;17.70;99.90
37528;DHT22;23372;52.050;4.810;2023-05-07T14:34:10;17.70;99.90
37528;DHT22;23372;52.050;4.810;2023-05-07T14:36:36;17.70;99.90
37528;DHT22;23372;52.050;4.810;2023-05-07T14:39:03;17.80;99.90
37528;DHT22;23372;52.050;4.810;2023-05-07T14:41:29;17.90;99.90
37528;DHT22;23372;52.050;4.810;2023-05-07T14:43:55;17.90;99.90
37528;DHT22;23372;52.050;4.810;2023-05-07T14:46:21;18.00;99.90
37528;DHT22;23372;52.050;4.810;2023-05-07T14:48:47;18.10;99.90
37528;DHT22;23372;52.050;4.810;2023-05-07T14:51:12;18.10;99.90
37528;DHT22;23372;52.050;4.810;2023-05-07T14:53:38;18.20;99.90
37528;DHT22;23372;52.050;4.810;2023-05-07T14:56:04;18.00;99.90
37528;DHT22;23372;52.050;4.810;2023-05-07T14:58:30;18.10;99.90
37528;DHT22;23372;52.050;4.810;2023-05-07T15:00:56;18.30;99.90
37528;DHT22;23372;52.050;4.810;2023-05-07T15:03:22;18.30;99.90
37528;DHT22;23372;52.050;4.810;2023-05-07T15:05:48;18.20;99.90
37528;DHT22;23372;52.050;4.810;2023-05-07T15:08:16;18.20;99.90
37528;DHT22;23372;52.050;4.810;2023-05-07T15:10:42;18.30;99.90
37528;DHT22;23372;52.050;4.810;2023-05-07T15:13:09;18.40;99.90
37528;DHT22;23372;52.050;4.810;2023-05-07T15:15:35;18.60;99.90
37528;DHT22;23372;52.050;4.810;2023-05-07T15:18:00;18.60;99.90
37528;DHT22;23372;52.050;4.810;2023-05-07T15:20:26;18.80;99.90
37528;DHT22;23372;52.050;4.810;2023-05-07T15:22:52;18.80;99.90
37528;DHT22;23372;52.050;4.810;2023-05-07T15:25:17;18.80;99.90
37528;DHT22;23372;52.050;4.810;2023-05-07T15:27:43;19.10;99.90
37528;DHT22;23372;52.050;4.810;2023-05-07T15:30:09;19.20;99.90
37528;DHT22;23372;52.050;4.810;2023-05-07T15:32:36;19.00;99.90
37528;DHT22;23372;52.050;4.810;2023-05-07T15:35:02;18.90;99.90